sensor_id;sensor_type;location;lat;lon;timestamp;temperature;humidity
47516;DHT22;33249;51.990;5.840;2022-07-23T00:01:01;15.70;99.90
47516;DHT22;33249;51.990;5.840;2022-07-23T00:03:27;15.80;99.90
47516;DHT22;33249;51.990;5.840;2022-07-23T00:05:56;15.80;99.90
47516;DHT22;33249;51.990;5.840;2022-07-23T00:08:25;15.90;99.90
47516;DHT22;33249;51.990;5.840;2022-07-23T00:11:01;15.80;99.90
47516;DHT22;33249;51.990;5.840;2022-07-23T00:13:27;15.70;99.90
47516;DHT22;33249;51.990;5.840;2022-07-23T00:15:53;15.50;99.90
47516;DHT22;33249;51.990;5.840;2022-07-23T00:18:19;15.50;99.90
47516;DHT22;33249;51.990;5.840;2022-07-23T00:20:55;15.50;99.90
47516;DHT22;33249;51.990;5.840;2022-07-23T00:23:36;15.50;99.90
47516;DHT22;33249;51.990;5.840;2022-07-23T00:26:07;15.50;99.90
47516;DHT22;33249;51.990;5.840;2022-07-23T00:28:34;15.50;99.90
47516;DHT22;33249;51.990;5.840;2022-07-23T00:31:00;15.40;99.90
47516;DHT22;33249;51.990;5.840;2022-07-23T00:33:26;15.40;99.90
47516;DHT22;33249;51.990;5.840;2022-07-23T00:35:52;15.40;99.90
47516;DHT22;33249;51.990;5.840;2022-07-23T00:38:18;15.40;99.90
47516;DHT22;33249;51.990;5.840;2022-07-23T00:40:50;15.30;99.90
47516;DHT22;33249;51.990;5.840;2022-07-23T00:43:16;15.30;99.90
47516;DHT22;33249;51.990;5.840;2022-07-23T00:45:45;15.30;99.90
47516;DHT22;33249;51.990;5.840;2022-07-23T00:48:11;14.90;99.90
47516;DHT22;33249;51.990;5.840;2022-07-23T00:50:43;15.00;99.90
47516;DHT22;33249;51.990;5.840;2022-07-23T00:53:12;15.10;99.90
47516;DHT22;33249;51.990;5.840;2022-07-23T00:55:41;15.20;99.90
47516;DHT22;33249;51.990;5.840;2022-07-23T00:58:12;15.30;99.90
47516;DHT22;33249;51.990;5.840;2022-07-23T01:00:38;15.30;99.90
47516;DHT22;33249;51.990;5.840;2022-07-23T01:03:10;15.10;99.90
47516;DHT22;33249;51.990;5.840;2022-07-23T01:05:36;15.10;99.90
47516;DHT22;33249;51.990;5.840;2022-07-23T01:08:03;15.10;99.90
47516;DHT22;33249;51.990;5.840;2022-07-23T01:10:32;15.20;99.90
47516;DHT22;33249;51.990;5.840;2022-07-23T01:13:05;15.00;99.90
47516;DHT22;33249;51.990;5.840;2022-07-23T01:15:34;15.00;99.90
47516;DHT22;33249;51.990;5.840;2022-07-23T01:18:01;15.00;99.90
47516;DHT22;33249;51.990;5.840;2022-07-23T01:20:28;15.10;99.90
47516;DHT22;33249;51.990;5.840;2022-07-23T01:23:07;15.10;99.90
47516;DHT22;33249;51.990;5.840;2022-07-23T01:25:47;15.10;99.90
47516;DHT22;33249;51.990;5.840;2022-07-23T01:28:16;15.10;99.90
47516;DHT22;33249;51.990;5.840;2022-07-23T01:30:42;15.10;99.90
47516;DHT22;33249;51.990;5.840;2022-07-23T01:33:21;15.10;99.90
47516;DHT22;33249;51.990;5.840;2022-07-23T01:35:49;15.10;99.90
47516;DHT22;33249;51.990;5.840;2022-07-23T01:38:24;15.00;99.90
47516;DHT22;33249;51.990;5.840;2022-07-23T01:40:56;15.00;99.90
47516;DHT22;33249;51.990;5.840;2022-07-23T01:43:31;15.00;99.90
47516;DHT22;33249;51.990;5.840;2022-07-23T01:46:00;15.00;99.90
47516;DHT22;33249;51.990;5.840;2022-07-23T01:48:36;15.00;99.90
47516;DHT22;33249;51.990;5.840;2022-07-23T01:51:20;14.90;99.90
47516;DHT22;33249;51.990;5.840;2022-07-23T01:53:59;15.00;99.90
47516;DHT22;33249;51.990;5.840;2022-07-23T01:56:35;15.00;99.90
47516;DHT22;33249;51.990;5.840;2022-07-23T01:59:15;15.00;99.90
47516;DHT22;33249;51.990;5.840;2022-07-23T02:01:50;15.00;99.90
47516;DHT22;33249;51.990;5.840;2022-07-23T02:04:22;14.90;99.90
47516;DHT22;33249;51.990;5.840;2022-07-23T02:06:50;14.90;99.90
47516;DHT22;33249;51.990;5.840;2022-07-23T02:09:25;14.90;99.90
47516;DHT22;33249;51.990;5.840;2022-07-23T02:11:52;14.80;99.90
47516;DHT22;33249;51.990;5.840;2022-07-23T02:14:19;14.80;99.90
47516;DHT22;33249;51.990;5.840;2022-07-23T02:16:45;14.80;99.90
47516;DHT22;33249;51.990;5.840;2022-07-23T02:19:14;14.80;99.90
47516;DHT22;33249;51.990;5.840;2022-07-23T02:21:40;14.80;99.90
47516;DHT22;33249;51.990;5.840;2022-07-23T02:24:12;14.80;99.90
47516;DHT22;33249;51.990;5.840;2022-07-23T02:26:44;14.80;99.90
47516;DHT22;33249;51.990;5.840;2022-07-23T02:29:11;14.70;99.90
47516;DHT22;33249;51.990;5.840;2022-07-23T02:31:39;14.70;99.90
47516;DHT22;33249;51.990;5.840;2022-07-23T02:34:15;14.70;99.90
47516;DHT22;33249;51.990;5.840;2022-07-23T02:36:47;14.60;99.90
47516;DHT22;33249;51.990;5.840;2022-07-23T02:39:16;14.60;99.90
47516;DHT22;33249;51.990;5.840;2022-07-23T02:41:44;14.50;99.90
47516;DHT22;33249;51.990;5.840;2022-07-23T02:44:13;14.70;99.90
47516;DHT22;33249;51.990;5.840;2022-07-23T02:46:45;14.70;99.90
47516;DHT22;33249;51.990;5.840;2022-07-23T02:49:21;14.60;99.90
47516;DHT22;33249;51.990;5.840;2022-07-23T02:51:58;14.60;99.90
47516;DHT22;33249;51.990;5.840;2022-07-23T02:54:28;14.60;99.90
47516;DHT22;33249;51.990;5.840;2022-07-23T02:56:54;14.60;99.90
47516;DHT22;33249;51.990;5.840;2022-07-23T02:59:20;14.70;99.90
47516;DHT22;33249;51.990;5.840;2022-07-23T03:01:48;14.70;99.90
47516;DHT22;33249;51.990;5.840;2022-07-23T03:04:16;14.70;99.90
47516;DHT22;33249;51.990;5.840;2022-07-23T03:06:52;14.80;99.90
47516;DHT22;33249;51.990;5.840;2022-07-23T03:09:18;14.80;99.90
47516;DHT22;33249;51.990;5.840;2022-07-23T03:11:51;14.80;99.90
47516;DHT22;33249;51.990;5.840;2022-07-23T03:14:25;14.70;99.90
47516;DHT22;33249;51.990;5.840;2022-07-23T03:16:58;14.60;99.90
47516;DHT22;33249;51.990;5.840;2022-07-23T03:19:27;14.50;99.90
47516;DHT22;33249;51.990;5.840;2022-07-23T03:22:04;14.50;99.90
47516;DHT22;33249;51.990;5.840;2022-07-23T03:24:32;14.70;99.90
47516;DHT22;33249;51.990;5.840;2022-07-23T03:27:24;14.60;99.90
47516;DHT22;33249;51.990;5.840;2022-07-23T03:29:50;14.70;99.90
47516;DHT22;33249;51.990;5.840;2022-07-23T03:32:17;14.70;99.90
47516;DHT22;33249;51.990;5.840;2022-07-23T03:34:46;14.60;99.90
47516;DHT22;33249;51.990;5.840;2022-07-23T03:37:15;14.60;99.90
47516;DHT22;33249;51.990;5.840;2022-07-23T03:39:41;14.60;99.90
47516;DHT22;33249;51.990;5.840;2022-07-23T03:42:07;14.50;99.90
47516;DHT22;33249;51.990;5.840;2022-07-23T03:44:36;14.50;99.90
47516;DHT22;33249;51.990;5.840;2022-07-23T03:47:06;14.50;99.90
47516;DHT22;33249;51.990;5.840;2022-07-23T03:49:32;14.50;99.90
47516;DHT22;33249;51.990;5.840;2022-07-23T03:51:59;14.40;99.90
47516;DHT22;33249;51.990;5.840;2022-07-23T03:54:32;14.40;99.90
47516;DHT22;33249;51.990;5.840;2022-07-23T03:57:04;14.50;99.90
47516;DHT22;33249;51.990;5.840;2022-07-23T03:59:42;14.30;99.90
47516;DHT22;33249;51.990;5.840;2022-07-23T04:02:21;14.30;99.90
47516;DHT22;33249;51.990;5.840;2022-07-23T04:04:55;14.30;99.90
47516;DHT22;33249;51.990;5.840;2022-07-23T04:07:29;14.30;99.90
47516;DHT22;33249;51.990;5.840;2022-07-23T04:12:33;14.30;99.90
47516;DHT22;33249;51.990;5.840;2022-07-23T04:15:04;14.30;99.90
47516;DHT22;33249;51.990;5.840;2022-07-23T04:17:53;14.20;99.90
47516;DHT22;33249;51.990;5.840;2022-07-23T04:20:28;14.10;99.90
47516;DHT22;33249;51.990;5.840;2022-07-23T04:23:01;14.00;99.90
47516;DHT22;33249;51.990;5.840;2022-07-23T04:25:29;13.90;99.90
47516;DHT22;33249;51.990;5.840;2022-07-23T04:28:00;13.80;99.90
47516;DHT22;33249;51.990;5.840;2022-07-23T04:30:28;13.80;99.90
47516;DHT22;33249;51.990;5.840;2022-07-23T04:32:54;13.90;99.90
47516;DHT22;33249;51.990;5.840;2022-07-23T04:35:27;14.10;99.90
47516;DHT22;33249;51.990;5.840;2022-07-23T04:38:00;14.00;99.90
47516;DHT22;33249;51.990;5.840;2022-07-23T04:40:26;13.90;99.90
47516;DHT22;33249;51.990;5.840;2022-07-23T04:42:52;13.90;99.90
47516;DHT22;33249;51.990;5.840;2022-07-23T04:45:28;14.10;99.90
47516;DHT22;33249;51.990;5.840;2022-07-23T04:48:06;14.20;99.90
47516;DHT22;33249;51.990;5.840;2022-07-23T04:50:34;14.30;99.90
47516;DHT22;33249;51.990;5.840;2022-07-23T04:53:02;14.40;99.90
47516;DHT22;33249;51.990;5.840;2022-07-23T04:55:31;14.20;99.90
47516;DHT22;33249;51.990;5.840;2022-07-23T04:58:00;14.10;99.90
47516;DHT22;33249;51.990;5.840;2022-07-23T05:00:34;14.00;99.90
47516;DHT22;33249;51.990;5.840;2022-07-23T05:03:04;14.00;99.90
47516;DHT22;33249;51.990;5.840;2022-07-23T05:05:36;13.90;99.90
47516;DHT22;33249;51.990;5.840;2022-07-23T05:08:12;13.90;99.90
47516;DHT22;33249;51.990;5.840;2022-07-23T05:10:49;14.10;99.90
47516;DHT22;33249;51.990;5.840;2022-07-23T05:13:21;14.70;99.90
47516;DHT22;33249;51.990;5.840;2022-07-23T05:15:52;15.10;99.90
47516;DHT22;33249;51.990;5.840;2022-07-23T05:18:21;14.80;99.90
47516;DHT22;33249;51.990;5.840;2022-07-23T05:20:49;14.90;99.90
47516;DHT22;33249;51.990;5.840;2022-07-23T05:23:20;15.10;99.90
47516;DHT22;33249;51.990;5.840;2022-07-23T05:25:50;15.60;99.90
47516;DHT22;33249;51.990;5.840;2022-07-23T05:28:22;15.90;99.90
47516;DHT22;33249;51.990;5.840;2022-07-23T05:30:52;15.80;99.90
47516;DHT22;33249;51.990;5.840;2022-07-23T05:33:23;15.80;99.90
47516;DHT22;33249;51.990;5.840;2022-07-23T05:38:57;15.50;99.90
47516;DHT22;33249;51.990;5.840;2022-07-23T05:41:32;15.80;99.90
47516;DHT22;33249;51.990;5.840;2022-07-23T05:44:03;15.80;99.90
47516;DHT22;33249;51.990;5.840;2022-07-23T05:46:44;15.80;99.90
47516;DHT22;33249;51.990;5.840;2022-07-23T05:49:21;15.80;99.90
47516;DHT22;33249;51.990;5.840;2022-07-23T05:52:21;15.90;99.90
47516;DHT22;33249;51.990;5.840;2022-07-23T05:55:13;16.00;99.90
47516;DHT22;33249;51.990;5.840;2022-07-23T05:57:40;16.20;99.90
47516;DHT22;33249;51.990;5.840;2022-07-23T06:00:07;16.40;99.90
47516;DHT22;33249;51.990;5.840;2022-07-23T06:02:39;16.80;99.90
47516;DHT22;33249;51.990;5.840;2022-07-23T06:05:13;17.60;99.90
47516;DHT22;33249;51.990;5.840;2022-07-23T06:07:43;18.20;99.90
47516;DHT22;33249;51.990;5.840;2022-07-23T06:10:12;18.20;99.90
47516;DHT22;33249;51.990;5.840;2022-07-23T06:12:44;18.30;99.90
47516;DHT22;33249;51.990;5.840;2022-07-23T06:15:19;18.40;99.90
47516;DHT22;33249;51.990;5.840;2022-07-23T06:20:49;17.60;99.90
47516;DHT22;33249;51.990;5.840;2022-07-23T06:23:20;17.50;99.90
47516;DHT22;33249;51.990;5.840;2022-07-23T06:26:22;17.60;99.90
47516;DHT22;33249;51.990;5.840;2022-07-23T06:28:54;17.30;99.90
47516;DHT22;33249;51.990;5.840;2022-07-23T06:31:22;17.30;99.90
47516;DHT22;33249;51.990;5.840;2022-07-23T06:33:58;17.10;99.90
47516;DHT22;33249;51.990;5.840;2022-07-23T06:36:29;17.00;99.90
47516;DHT22;33249;51.990;5.840;2022-07-23T06:39:00;17.10;99.90
47516;DHT22;33249;51.990;5.840;2022-07-23T06:41:33;17.00;99.90
47516;DHT22;33249;51.990;5.840;2022-07-23T06:44:08;17.00;99.90
47516;DHT22;33249;51.990;5.840;2022-07-23T06:46:48;16.90;99.90
47516;DHT22;33249;51.990;5.840;2022-07-23T06:49:17;16.90;99.90
47516;DHT22;33249;51.990;5.840;2022-07-23T06:51:52;16.80;99.90
47516;DHT22;33249;51.990;5.840;2022-07-23T06:54:21;17.10;99.90
47516;DHT22;33249;51.990;5.840;2022-07-23T06:56:47;17.00;99.90
47516;DHT22;33249;51.990;5.840;2022-07-23T06:59:31;16.90;99.90
47516;DHT22;33249;51.990;5.840;2022-07-23T07:02:03;17.00;99.90
47516;DHT22;33249;51.990;5.840;2022-07-23T07:04:36;17.00;99.90
47516;DHT22;33249;51.990;5.840;2022-07-23T07:10:56;16.90;99.90
47516;DHT22;33249;51.990;5.840;2022-07-23T07:16:41;17.20;99.90
47516;DHT22;33249;51.990;5.840;2022-07-23T07:26:30;17.40;99.90
47516;DHT22;33249;51.990;5.840;2022-07-23T07:28:59;17.30;99.90
47516;DHT22;33249;51.990;5.840;2022-07-23T07:31:26;17.30;99.90
47516;DHT22;33249;51.990;5.840;2022-07-23T07:33:59;17.30;99.90
47516;DHT22;33249;51.990;5.840;2022-07-23T07:36:33;17.60;99.90
47516;DHT22;33249;51.990;5.840;2022-07-23T07:39:11;17.70;99.90
47516;DHT22;33249;51.990;5.840;2022-07-23T07:41:44;17.70;99.90
47516;DHT22;33249;51.990;5.840;2022-07-23T07:44:13;17.50;99.90
47516;DHT22;33249;51.990;5.840;2022-07-23T07:46:39;17.70;99.90
47516;DHT22;33249;51.990;5.840;2022-07-23T07:49:08;17.60;99.90
47516;DHT22;33249;51.990;5.840;2022-07-23T07:51:37;17.60;99.90
47516;DHT22;33249;51.990;5.840;2022-07-23T07:54:12;17.80;99.90
47516;DHT22;33249;51.990;5.840;2022-07-23T07:56:47;17.90;99.90
47516;DHT22;33249;51.990;5.840;2022-07-23T07:59:22;17.90;99.90
47516;DHT22;33249;51.990;5.840;2022-07-23T08:01:54;18.00;99.90
47516;DHT22;33249;51.990;5.840;2022-07-23T08:04:29;18.10;99.90
47516;DHT22;33249;51.990;5.840;2022-07-23T08:06:58;18.20;99.90
47516;DHT22;33249;51.990;5.840;2022-07-23T08:09:27;18.50;99.90
47516;DHT22;33249;51.990;5.840;2022-07-23T08:12:05;19.20;99.90
47516;DHT22;33249;51.990;5.840;2022-07-23T08:14:41;20.10;99.90
47516;DHT22;33249;51.990;5.840;2022-07-23T08:17:25;21.10;99.90
47516;DHT22;33249;51.990;5.840;2022-07-23T08:20:06;21.00;99.90
47516;DHT22;33249;51.990;5.840;2022-07-23T08:22:43;21.50;99.90
47516;DHT22;33249;51.990;5.840;2022-07-23T08:27:57;22.60;99.90
47516;DHT22;33249;51.990;5.840;2022-07-23T08:30:32;22.90;99.90
47516;DHT22;33249;51.990;5.840;2022-07-23T08:33:08;22.50;99.90
47516;DHT22;33249;51.990;5.840;2022-07-23T08:35:43;22.50;99.90
47516;DHT22;33249;51.990;5.840;2022-07-23T08:38:24;23.10;99.90
47516;DHT22;33249;51.990;5.840;2022-07-23T08:41:16;22.90;99.90
47516;DHT22;33249;51.990;5.840;2022-07-23T08:43:51;22.90;99.90
47516;DHT22;33249;51.990;5.840;2022-07-23T08:46:43;23.10;99.90
47516;DHT22;33249;51.990;5.840;2022-07-23T08:49:13;24.40;99.90
47516;DHT22;33249;51.990;5.840;2022-07-23T08:51:44;25.10;98.60
47516;DHT22;33249;51.990;5.840;2022-07-23T08:54:18;25.00;97.20
47516;DHT22;33249;51.990;5.840;2022-07-23T08:57:03;25.10;98.10
47516;DHT22;33249;51.990;5.840;2022-07-23T08:59:34;24.90;96.20
47516;DHT22;33249;51.990;5.840;2022-07-23T09:02:03;24.50;96.20
47516;DHT22;33249;51.990;5.840;2022-07-23T09:04:30;24.70;98.00
47516;DHT22;33249;51.990;5.840;2022-07-23T09:06:56;25.50;96.90
47516;DHT22;33249;51.990;5.840;2022-07-23T09:09:23;25.90;96.50
47516;DHT22;33249;51.990;5.840;2022-07-23T09:12:07;25.70;95.20
47516;DHT22;33249;51.990;5.840;2022-07-23T09:14:46;26.00;95.70
47516;DHT22;33249;51.990;5.840;2022-07-23T09:17:16;26.20;94.90
47516;DHT22;33249;51.990;5.840;2022-07-23T09:19:50;25.80;93.00
47516;DHT22;33249;51.990;5.840;2022-07-23T09:30:29;26.70;94.30
47516;DHT22;33249;51.990;5.840;2022-07-23T09:33:13;26.20;94.00
47516;DHT22;33249;51.990;5.840;2022-07-23T09:41:24;26.70;94.30
47516;DHT22;33249;51.990;5.840;2022-07-23T09:44:05;26.20;93.90
47516;DHT22;33249;51.990;5.840;2022-07-23T09:46:45;26.10;95.10
47516;DHT22;33249;51.990;5.840;2022-07-23T09:49:34;27.40;93.20
47516;DHT22;33249;51.990;5.840;2022-07-23T09:52:09;27.00;92.30
47516;DHT22;33249;51.990;5.840;2022-07-23T09:54:38;27.10;93.00
47516;DHT22;33249;51.990;5.840;2022-07-23T09:57:08;27.20;92.90
47516;DHT22;33249;51.990;5.840;2022-07-23T09:59:48;26.50;91.90
47516;DHT22;33249;51.990;5.840;2022-07-23T10:02:20;25.90;92.40
47516;DHT22;33249;51.990;5.840;2022-07-23T10:08:40;25.00;93.70
47516;DHT22;33249;51.990;5.840;2022-07-23T10:11:28;25.30;93.70
47516;DHT22;33249;51.990;5.840;2022-07-23T10:14:28;25.80;94.80
47516;DHT22;33249;51.990;5.840;2022-07-23T10:17:22;26.00;93.50
47516;DHT22;33249;51.990;5.840;2022-07-23T10:23:51;27.30;93.30
47516;DHT22;33249;51.990;5.840;2022-07-23T10:29:49;27.00;92.10
47516;DHT22;33249;51.990;5.840;2022-07-23T11:20:19;26.70;92.40
47516;DHT22;33249;51.990;5.840;2022-07-23T11:23:02;26.80;92.00
47516;DHT22;33249;51.990;5.840;2022-07-23T12:08:19;26.70;90.90
47516;DHT22;33249;51.990;5.840;2022-07-23T12:26:28;26.20;92.20
47516;DHT22;33249;51.990;5.840;2022-07-23T13:21:39;25.80;91.00
47516;DHT22;33249;51.990;5.840;2022-07-23T13:35:02;25.40;92.50
47516;DHT22;33249;51.990;5.840;2022-07-23T13:38:13;25.80;92.60
47516;DHT22;33249;51.990;5.840;2022-07-23T13:44:56;26.10;92.10
47516;DHT22;33249;51.990;5.840;2022-07-23T13:47:57;25.50;91.70
47516;DHT22;33249;51.990;5.840;2022-07-23T13:57:31;24.90;92.90
47516;DHT22;33249;51.990;5.840;2022-07-23T14:17:16;25.70;92.50
47516;DHT22;33249;51.990;5.840;2022-07-23T14:20:15;25.50;91.20
47516;DHT22;33249;51.990;5.840;2022-07-23T14:33:26;25.10;93.60
47516;DHT22;33249;51.990;5.840;2022-07-23T14:43:20;24.90;93.90
47516;DHT22;33249;51.990;5.840;2022-07-23T15:19:38;24.80;93.70
47516;DHT22;33249;51.990;5.840;2022-07-23T15:22:50;24.80;93.60
47516;DHT22;33249;51.990;5.840;2022-07-23T15:29:30;24.50;94.10
47516;DHT22;33249;51.990;5.840;2022-07-23T15:32:49;24.70;92.60
47516;DHT22;33249;51.990;5.840;2022-07-23T15:35:35;24.80;92.20
47516;DHT22;33249;51.990;5.840;2022-07-23T15:38:31;24.60;93.70
47516;DHT22;33249;51.990;5.840;2022-07-23T15:48:10;24.80;93.40
47516;DHT22;33249;51.990;5.840;2022-07-23T15:55:07;25.00;92.50
47516;DHT22;33249;51.990;5.840;2022-07-23T15:58:23;24.90;92.30
47516;DHT22;33249;51.990;5.840;2022-07-23T16:04:52;24.80;92.20
47516;DHT22;33249;51.990;5.840;2022-07-23T16:11:25;24.50;93.80
47516;DHT22;33249;51.990;5.840;2022-07-23T16:21:53;24.50;94.10
47516;DHT22;33249;51.990;5.840;2022-07-23T16:28:17;24.70;95.40
47516;DHT22;33249;51.990;5.840;2022-07-23T16:30:51;24.80;95.30
47516;DHT22;33249;51.990;5.840;2022-07-23T16:34:19;24.70;94.40
47516;DHT22;33249;51.990;5.840;2022-07-23T16:46:22;24.40;95.20
47516;DHT22;33249;51.990;5.840;2022-07-23T16:48:55;24.30;95.70
47516;DHT22;33249;51.990;5.840;2022-07-23T20:59:17;20.10;99.90
47516;DHT22;33249;51.990;5.840;2022-07-23T21:08:47;20.00;99.90
47516;DHT22;33249;51.990;5.840;2022-07-23T21:14:48;20.10;99.90
47516;DHT22;33249;51.990;5.840;2022-07-23T21:17:30;20.20;99.90
47516;DHT22;33249;51.990;5.840;2022-07-23T21:23:52;20.30;99.90
47516;DHT22;33249;51.990;5.840;2022-07-23T21:33:39;20.10;99.90
47516;DHT22;33249;51.990;5.840;2022-07-23T21:37:06;19.90;99.90
47516;DHT22;33249;51.990;5.840;2022-07-23T21:40:01;20.10;99.90
47516;DHT22;33249;51.990;5.840;2022-07-23T21:42:49;20.10;99.90
47516;DHT22;33249;51.990;5.840;2022-07-23T21:51:59;19.80;99.90
47516;DHT22;33249;51.990;5.840;2022-07-23T21:54:43;19.80;99.90
47516;DHT22;33249;51.990;5.840;2022-07-23T22:03:14;19.70;99.90
47516;DHT22;33249;51.990;5.840;2022-07-23T22:09:51;19.60;99.90
47516;DHT22;33249;51.990;5.840;2022-07-23T22:12:26;19.60;99.90
47516;DHT22;33249;51.990;5.840;2022-07-23T22:14:57;19.80;99.90
47516;DHT22;33249;51.990;5.840;2022-07-23T22:17:23;19.70;99.90
47516;DHT22;33249;51.990;5.840;2022-07-23T22:19:52;19.70;99.90
47516;DHT22;33249;51.990;5.840;2022-07-23T22:22:30;19.60;99.90
47516;DHT22;33249;51.990;5.840;2022-07-23T22:25:02;19.60;99.90
47516;DHT22;33249;51.990;5.840;2022-07-23T22:27:28;19.60;99.90
47516;DHT22;33249;51.990;5.840;2022-07-23T22:29:59;19.60;99.90
47516;DHT22;33249;51.990;5.840;2022-07-23T22:32:31;19.60;99.90
47516;DHT22;33249;51.990;5.840;2022-07-23T22:35:00;19.50;99.90
47516;DHT22;33249;51.990;5.840;2022-07-23T22:37:29;19.50;99.90
47516;DHT22;33249;51.990;5.840;2022-07-23T22:39:58;19.30;99.90
47516;DHT22;33249;51.990;5.840;2022-07-23T22:42:24;19.40;99.90
47516;DHT22;33249;51.990;5.840;2022-07-23T22:44:57;19.40;99.90
47516;DHT22;33249;51.990;5.840;2022-07-23T22:47:26;19.40;99.90
47516;DHT22;33249;51.990;5.840;2022-07-23T22:50:04;19.50;99.90
47516;DHT22;33249;51.990;5.840;2022-07-23T22:52:30;19.30;99.90
47516;DHT22;33249;51.990;5.840;2022-07-23T22:54:56;19.40;99.90
47516;DHT22;33249;51.990;5.840;2022-07-23T22:57:24;19.40;99.90
47516;DHT22;33249;51.990;5.840;2022-07-23T22:59:53;19.40;99.90
47516;DHT22;33249;51.990;5.840;2022-07-23T23:02:22;19.50;99.90
47516;DHT22;33249;51.990;5.840;2022-07-23T23:05:08;19.40;99.90
47516;DHT22;33249;51.990;5.840;2022-07-23T23:07:34;19.40;99.90
47516;DHT22;33249;51.990;5.840;2022-07-23T23:10:00;19.40;99.90
47516;DHT22;33249;51.990;5.840;2022-07-23T23:12:26;19.40;99.90
47516;DHT22;33249;51.990;5.840;2022-07-23T23:15:20;19.40;99.90
47516;DHT22;33249;51.990;5.840;2022-07-23T23:17:55;19.40;99.90
47516;DHT22;33249;51.990;5.840;2022-07-23T23:20:30;19.20;99.90
47516;DHT22;33249;51.990;5.840;2022-07-23T23:23:02;19.20;99.90
47516;DHT22;33249;51.990;5.840;2022-07-23T23:25:28;19.30;99.90
47516;DHT22;33249;51.990;5.840;2022-07-23T23:28:05;19.20;99.90
47516;DHT22;33249;51.990;5.840;2022-07-23T23:30:31;19.20;99.90
47516;DHT22;33249;51.990;5.840;2022-07-23T23:32:59;19.20;99.90
47516;DHT22;33249;51.990;5.840;2022-07-23T23:35:25;19.20;99.90
47516;DHT22;33249;51.990;5.840;2022-07-23T23:37:52;19.20;99.90
47516;DHT22;33249;51.990;5.840;2022-07-23T23:40:21;19.20;99.90
47516;DHT22;33249;51.990;5.840;2022-07-23T23:42:47;19.10;99.90
47516;DHT22;33249;51.990;5.840;2022-07-23T23:45:15;19.10;99.90
47516;DHT22;33249;51.990;5.840;2022-07-23T23:47:42;19.00;99.90
47516;DHT22;33249;51.990;5.840;2022-07-23T23:50:11;19.00;99.90
47516;DHT22;33249;51.990;5.840;2022-07-23T23:52:40;19.00;99.90
47516;DHT22;33249;51.990;5.840;2022-07-23T23:55:07;19.00;99.90
47516;DHT22;33249;51.990;5.840;2022-07-23T23:57:38;19.20;99.90
